Time;durP1;ratioP1;P1;durP2;ratioP2;P2;SDS_P1;SDS_P2;PMS_P1;PMS_P2;Temp;Humidity;BMP_temperature;BMP_pressure;BME280_temperature;BME280_humidity;BME280_pressure;Samples;Min_cycle;Max_cycle;Signal;HPM_P1;HPM_P2
2022/05/30 00:02:21;;;;;;;6.40;3.30;;;;;;;11.05;100.00;93721.66;6217814;23;20420;-88
2022/05/30 00:04:47;;;;;;;10.70;3.45;;;;;;;11.01;100.00;93725.88;6217507;23;20007;-88
2022/05/30 00:07:12;;;;;;;9.63;3.75;;;;;;;11.33;100.00;93724.31;6217267;23;19996;-88
2022/05/30 00:09:37;;;;;;;7.00;3.35;;;;;;;11.54;100.00;93721.38;6217451;23;20349;-89
2022/05/30 00:12:03;;;;;;;4.30;2.80;;;;;;;11.58;100.00;93714.47;6192373;23;20000;-88
2022/05/30 00:14:29;;;;;;;10.77;4.10;;;;;;;11.24;100.00;93699.84;6217285;23;20080;-89
2022/05/30 00:16:55;;;;;;;7.22;3.50;;;;;;;11.57;100.00;93707.69;6192300;23;20004;-89
2022/05/30 00:19:21;;;;;;;6.97;3.60;;;;;;;11.63;100.00;93714.41;6191977;23;20481;-90
2022/05/30 00:21:46;;;;;;;4.25;2.80;;;;;;;11.76;100.00;93705.00;6216769;23;19996;-89
2022/05/30 00:24:12;;;;;;;5.88;3.00;;;;;;;11.69;100.00;93712.44;6217704;23;19999;-89
2022/05/30 00:26:41;;;;;;;5.15;2.70;;;;;;;11.68;100.00;93714.31;6192252;23;20139;-89
2022/05/30 00:29:07;;;;;;;5.55;2.67;;;;;;;11.60;100.00;93723.63;6191149;23;20012;-89
2022/05/30 00:31:35;;;;;;;9.38;2.67;;;;;;;11.63;100.00;93721.50;6192625;23;20007;-89
2022/05/30 00:34:00;;;;;;;8.65;3.25;;;;;;;11.69;100.00;93718.50;6216800;23;20083;-90
2022/05/30 00:36:26;;;;;;;4.68;2.53;;;;;;;11.81;100.00;93715.38;6216639;23;19997;-89
2022/05/30 00:38:51;;;;;;;19.30;3.75;;;;;;;11.22;100.00;93712.47;6192163;23;20464;-88
2022/05/30 00:41:17;;;;;;;7.43;3.42;;;;;;;11.37;100.00;93720.09;6217303;23;20385;-89
2022/05/30 00:43:47;;;;;;;14.05;3.88;;;;;;;11.44;100.00;93723.09;6191709;23;19996;-90
2022/05/30 00:46:15;;;;;;;9.82;3.60;;;;;;;11.18;100.00;93726.13;6216569;23;19992;-89
2022/05/30 00:48:56;;;;;;;9.40;3.55;;;;;;;10.81;100.00;93721.72;6191762;23;20010;-89
2022/05/30 00:51:28;;;;;;;12.43;3.83;;;;;;;10.71;100.00;93725.25;6192013;23;20007;-89
2022/05/30 00:53:56;;;;;;;8.63;4.47;;;;;;;10.63;100.00;93725.91;6216712;23;20001;-89
2022/05/30 00:56:29;;;;;;;11.38;3.90;;;;;;;10.73;100.00;93716.06;6216779;23;20019;-88
2022/05/30 00:58:54;;;;;;;9.03;4.37;;;;;;;10.77;100.00;93711.03;6216716;23;20000;-90
2022/05/30 01:01:20;;;;;;;130.85;7.13;;;;;;;10.94;100.00;93715.00;6191559;23;20533;-89
2022/05/30 01:06:34;;;;;;;12.18;4.05;;;;;;;11.47;100.00;93698.16;6216901;23;20372;-89
2022/05/30 01:09:03;;;;;;;4.55;3.03;;;;;;;11.58;100.00;93698.75;6216913;23;20004;-89
2022/05/30 01:11:47;;;;;;;6.03;3.70;;;;;;;11.12;100.00;93689.81;6216571;23;20316;-89
2022/05/30 01:14:12;;;;;;;;;;;;;;;10.82;100.00;93683.97;6216884;23;20467;-88
2022/05/30 01:16:37;;;;;;;8.07;3.97;;;;;;;11.05;100.00;93684.16;6216593;23;19912;-88
2022/05/30 01:19:03;;;;;;;9.68;4.05;;;;;;;10.84;100.00;93680.00;6216467;23;20306;-87
2022/05/30 01:21:58;;;;;;;5.93;4.03;;;;;;;11.04;100.00;93680.75;6217962;23;20024;-89
2022/05/30 01:24:47;;;;;;;7.70;3.45;;;;;;;11.25;100.00;93673.31;6216042;23;20003;-89
2022/05/30 01:27:47;;;;;;;8.85;3.40;;;;;;;11.35;100.00;93671.59;6170872;23;20414;-89
2022/05/30 01:30:15;;;;;;;6.43;3.35;;;;;;;11.16;100.00;93667.19;6210175;23;20000;-89
2022/05/30 01:32:41;;;;;;;4.32;3.15;;;;;;;11.33;100.00;93679.75;6216113;23;19997;-89
2022/05/30 01:35:10;;;;;;;7.80;3.28;;;;;;;11.33;100.00;93671.88;6216270;23;20465;-90
2022/05/30 01:37:35;;;;;;;6.13;3.67;;;;;;;11.32;100.00;93670.31;6191730;23;20027;-90
2022/05/30 01:40:01;;;;;;;6.65;3.15;;;;;;;11.35;100.00;93668.97;6191726;23;20000;-89
2022/05/30 01:42:27;;;;;;;9.55;4.07;;;;;;;10.81;100.00;93662.22;6216727;23;20000;-88
2022/05/30 01:44:52;;;;;;;12.18;4.28;;;;;;;10.69;100.00;93667.13;6190891;23;19996;-88
2022/05/30 01:47:18;;;;;;;18.10;4.68;;;;;;;10.69;100.00;93661.88;6217389;23;20004;-88
2022/05/30 01:49:43;;;;;;;9.77;5.30;;;;;;;10.85;100.00;93657.22;6190722;23;20028;-87
2022/05/30 01:52:09;;;;;;;14.25;5.28;;;;;;;10.54;100.00;93655.03;6215614;23;20440;-88
2022/05/30 01:54:35;;;;;;;9.95;4.60;;;;;;;10.88;100.00;93675.75;6190907;23;20055;-89
2022/05/30 01:57:01;;;;;;;13.77;4.30;;;;;;;10.99;100.00;93668.50;6215884;23;20020;-89
2022/05/30 01:59:26;;;;;;;8.23;4.63;;;;;;;10.98;100.00;93664.34;6216009;23;19999;-88
2022/05/30 02:01:52;;;;;;;6.88;3.90;;;;;;;11.24;100.00;93658.66;6215909;23;20032;-88
2022/05/30 02:04:18;;;;;;;9.43;4.30;;;;;;;11.14;100.00;93662.22;6191063;23;20023;-88
2022/05/30 02:06:44;;;;;;;10.50;4.35;;;;;;;10.89;100.00;93663.44;6191271;23;20004;-88
2022/05/30 02:09:10;;;;;;;6.45;4.32;;;;;;;11.17;100.00;93664.28;6191439;23;20083;-88
2022/05/30 02:11:35;;;;;;;9.10;4.57;;;;;;;11.45;100.00;93663.56;6190483;23;20000;-88
2022/05/30 02:14:01;;;;;;;6.32;3.58;;;;;;;11.32;100.00;93665.88;6190492;23;20391;-89
2022/05/30 02:19:10;;;;;;;7.30;3.70;;;;;;;11.51;100.00;93661.63;6215875;23;20047;-88
2022/05/30 02:21:36;;;;;;;7.15;4.00;;;;;;;11.55;100.00;93666.00;6216060;23;20004;-88
2022/05/30 02:24:04;;;;;;;8.13;3.90;;;;;;;11.57;100.00;93666.50;6215754;23;20047;-88
2022/05/30 02:26:29;;;;;;;12.13;3.83;;;;;;;11.64;100.00;93667.94;6215488;23;20103;-88
2022/05/30 02:28:55;;;;;;;9.57;4.00;;;;;;;11.50;100.00;93678.44;6215885;23;20028;-89
2022/05/30 02:31:20;;;;;;;7.28;4.00;;;;;;;11.64;100.00;93666.13;6190917;23;20063;-88
2022/05/30 02:36:38;;;;;;;;;;;;;;;11.81;100.00;93675.25;6217699;23;20078;-88
2022/05/30 02:39:04;;;;;;;4.25;3.47;;;;;;;11.72;100.00;93677.78;6216035;23;20202;-89
2022/05/30 02:41:30;;;;;;;8.88;4.72;;;;;;;11.82;100.00;93684.69;6215663;23;20050;-88
2022/05/30 02:43:55;;;;;;;7.50;4.30;;;;;;;11.43;100.00;93682.19;6190774;23;20000;-88
2022/05/30 02:46:21;;;;;;;9.93;4.00;;;;;;;11.24;100.00;93681.50;6190892;23;20079;-88
2022/05/30 02:48:46;;;;;;;7.38;4.30;;;;;;;11.13;100.00;93686.91;6215615;23;20007;-88
2022/05/30 02:51:12;;;;;;;12.63;4.88;;;;;;;11.54;100.00;93687.28;6215786;23;19993;-88
2022/05/30 02:53:37;;;;;;;6.55;4.22;;;;;;;11.68;100.00;93677.56;6190945;23;20092;-88
2022/05/30 02:56:03;;;;;;;10.75;4.55;;;;;;;11.36;100.00;93683.66;6191092;23;20075;-88
2022/05/30 02:58:29;;;;;;;6.40;4.28;;;;;;;11.63;100.00;93680.31;6190821;23;20413;-89
2022/05/30 03:00:54;;;;;;;6.18;4.40;;;;;;;11.71;100.00;93678.84;6190779;23;20047;-89
2022/05/30 03:03:20;;;;;;;8.35;4.45;;;;;;;11.62;100.00;93668.25;6215410;23;20069;-89
2022/05/30 03:05:45;;;;;;;6.15;4.63;;;;;;;11.57;100.00;93682.25;6190827;23;19997;-89
2022/05/30 03:08:11;;;;;;;7.55;4.45;;;;;;;11.66;100.00;93681.56;6216044;23;20011;-89
2022/05/30 03:10:37;;;;;;;8.98;4.88;;;;;;;11.71;100.00;93676.22;6215925;23;20306;-88
2022/05/30 03:13:04;;;;;;;9.38;4.05;;;;;;;11.70;100.00;93667.56;6215233;23;20007;-89
2022/05/30 03:15:29;;;;;;;7.07;3.85;;;;;;;11.70;100.00;93675.44;6215344;23;20009;-89
2022/05/30 03:17:55;;;;;;;8.13;3.85;;;;;;;11.75;100.00;93687.69;6216133;23;20003;-90
2022/05/30 03:20:21;;;;;;;6.53;4.28;;;;;;;11.86;100.00;93683.03;6215424;23;19993;-89
2022/05/30 03:22:47;;;;;;;5.68;3.83;;;;;;;11.84;100.00;93680.69;6216048;23;20004;-89
2022/05/30 03:25:14;;;;;;;7.05;4.32;;;;;;;11.50;100.00;93678.44;6192618;23;19997;-88
2022/05/30 03:27:39;;;;;;;9.95;4.60;;;;;;;11.56;100.00;93688.56;6192707;23;20008;-89
2022/05/30 03:30:06;;;;;;;9.98;5.13;;;;;;;11.53;100.00;93691.72;6218087;23;20394;-89
2022/05/30 03:32:31;;;;;;;10.85;6.35;;;;;;;11.05;100.00;93698.06;6192647;23;20083;-88
2022/05/30 03:34:57;;;;;;;10.32;5.25;;;;;;;11.38;100.00;93703.28;6217891;23;20009;-89
2022/05/30 03:37:22;;;;;;;11.43;5.20;;;;;;;11.56;100.00;93701.66;6217124;23;20000;-89
2022/05/30 03:39:48;;;;;;;9.65;5.13;;;;;;;11.70;100.00;93698.28;6192646;23;20248;-89
2022/05/30 03:42:14;;;;;;;8.35;5.68;;;;;;;11.74;100.00;93702.66;6192529;23;20000;-89
2022/05/30 03:44:40;;;;;;;7.63;5.25;;;;;;;11.76;100.00;93696.31;6217297;23;20030;-89
2022/05/30 03:47:06;;;;;;;5.75;4.68;;;;;;;11.87;100.00;93698.50;6192881;23;20001;-88
2022/05/30 03:49:32;;;;;;;10.60;4.93;;;;;;;11.71;100.00;93713.72;6217394;23;20070;-89
2022/05/30 03:51:58;;;;;;;9.98;4.75;;;;;;;11.80;100.00;93705.19;6218871;23;20382;-89
2022/05/30 03:54:24;;;;;;;11.93;5.20;;;;;;;11.73;100.00;93705.56;6218564;23;20425;-89
2022/05/30 03:56:49;;;;;;;8.50;5.55;;;;;;;11.23;100.00;93706.91;6217370;23;20007;-89
2022/05/30 03:59:15;;;;;;;10.43;6.35;;;;;;;11.49;100.00;93701.25;6217229;23;19997;-89
2022/05/30 04:01:40;;;;;;;9.32;6.68;;;;;;;11.39;100.00;93696.97;6191638;23;19996;-89
2022/05/30 04:04:05;;;;;;;9.30;6.20;;;;;;;11.53;100.00;93714.59;6192400;23;20000;-88
2022/05/30 04:06:31;;;;;;;17.75;5.43;;;;;;;11.63;100.00;93727.53;6217276;23;20004;-90
2022/05/30 04:08:57;;;;;;;10.20;5.95;;;;;;;11.38;100.00;93718.22;6192445;23;20008;-89
2022/05/30 04:11:22;;;;;;;10.68;6.90;;;;;;;11.04;100.00;93722.69;6217539;23;19996;-89
2022/05/30 04:13:49;;;;;;;14.27;7.78;;;;;;;10.99;100.00;93735.88;6192798;23;19996;-89
2022/05/30 04:16:15;;;;;;;13.63;6.97;;;;;;;11.26;100.00;93726.56;6191928;23;20032;-89
2022/05/30 04:18:41;;;;;;;18.88;7.72;;;;;;;11.20;100.00;93723.22;6217099;23;20467;-89
2022/05/30 04:21:11;;;;;;;17.80;8.43;;;;;;;11.01;100.00;93729.28;6217144;23;19996;-90
2022/05/30 04:23:37;;;;;;;18.77;9.35;;;;;;;10.92;100.00;93731.00;6216748;23;19996;-90
2022/05/30 04:26:04;;;;;;;16.45;9.50;;;;;;;10.96;100.00;93744.31;6216709;23;20313;-90
2022/05/30 04:28:30;;;;;;;15.93;8.73;;;;;;;11.31;100.00;93743.00;6191831;23;20008;-89
2022/05/30 04:30:55;;;;;;;15.23;8.52;;;;;;;11.09;100.00;93734.94;6192156;23;20036;-90
2022/05/30 04:33:21;;;;;;;14.55;9.38;;;;;;;10.91;100.00;93739.16;6216389;23;20095;-91
2022/05/30 04:35:46;;;;;;;14.70;8.60;;;;;;;11.17;100.00;93756.03;6191581;23;20318;-90
2022/05/30 04:38:12;;;;;;;15.98;9.82;;;;;;;11.22;100.00;93742.06;6191774;23;20001;-89
2022/05/30 04:40:37;;;;;;;15.00;8.95;;;;;;;11.27;100.00;93747.25;6218649;23;19996;-90
2022/05/30 04:43:02;;;;;;;18.65;8.63;;;;;;;11.68;100.00;93745.81;6216812;23;20469;-89
2022/05/30 04:45:28;;;;;;;18.05;9.82;;;;;;;11.33;100.00;93750.56;6216901;23;19993;-90
2022/05/30 04:47:53;;;;;;;18.52;10.32;;;;;;;11.32;100.00;93751.63;6216558;23;20007;-90
2022/05/30 04:50:19;;;;;;;16.70;9.70;;;;;;;10.96;100.00;93752.19;6216485;23;20050;-90
2022/05/30 04:52:45;;;;;;;17.83;9.85;;;;;;;11.02;100.00;93756.25;6191513;23;20055;-91
2022/05/30 04:55:12;;;;;;;20.08;10.73;;;;;;;10.96;100.00;93754.78;6215418;23;20000;-90
2022/05/30 04:57:47;;;;;;;25.70;12.07;;;;;;;10.87;100.00;93759.91;6216461;23;20001;-90
2022/05/30 05:00:16;;;;;;;26.13;11.90;;;;;;;11.12;100.00;93771.09;6191562;23;20078;-90
2022/05/30 05:02:41;;;;;;;21.05;10.90;;;;;;;11.32;100.00;93770.78;6191595;23;20004;-90
2022/05/30 05:05:07;;;;;;;20.88;10.07;;;;;;;11.54;100.00;93766.75;6216285;23;20032;-90
2022/05/30 05:08:00;;;;;;;20.45;11.18;;;;;;;11.31;100.00;93766.59;6216239;23;20005;-91
2022/05/30 05:10:27;;;;;;;23.65;11.10;;;;;;;11.03;100.00;93774.34;6164372;23;20349;-91
2022/05/30 05:12:52;;;;;;;28.08;11.77;;;;;;;11.10;100.00;93771.38;6216403;23;20005;-91
2022/05/30 05:15:18;;;;;;;21.95;12.75;;;;;;;11.13;100.00;93770.78;6216286;23;20008;-89
2022/05/30 05:17:43;;;;;;;23.45;12.00;;;;;;;11.31;100.00;93769.22;6216607;23;20179;-89
2022/05/30 05:20:09;;;;;;;25.40;12.02;;;;;;;11.35;100.00;93766.81;6191792;23;20005;-90
2022/05/30 05:22:35;;;;;;;19.92;11.55;;;;;;;12.06;100.00;93768.53;6191292;23;20027;-90
2022/05/30 05:25:00;;;;;;;19.67;11.10;;;;;;;11.67;100.00;93770.50;6191218;23;19997;-90
2022/05/30 05:27:26;;;;;;;20.27;10.13;;;;;;;12.11;100.00;93776.28;6190960;23;20000;-90
2022/05/30 05:29:55;;;;;;;17.00;10.30;;;;;;;12.07;100.00;93769.31;6191319;23;20000;-91
2022/05/30 05:32:21;;;;;;;17.17;8.85;;;;;;;12.26;100.00;93770.00;6216408;23;20007;-90
2022/05/30 05:34:50;;;;;;;12.90;8.93;;;;;;;12.81;100.00;93768.38;6216221;23;20024;-91
2022/05/30 05:37:18;;;;;;;16.15;8.85;;;;;;;12.62;100.00;93771.13;6192234;23;20005;-89
2022/05/30 05:39:44;;;;;;;15.75;8.27;;;;;;;13.34;100.00;93771.44;6191447;23;20000;-90
2022/05/30 05:42:09;;;;;;;14.63;8.57;;;;;;;12.48;100.00;93784.31;6215886;23;20011;-90
2022/05/30 05:44:35;;;;;;;16.73;9.35;;;;;;;11.83;100.00;93789.34;6190857;23;20036;-90
2022/05/30 05:47:02;;;;;;;12.15;8.88;;;;;;;12.15;100.00;93787.00;6215916;23;20016;-90
2022/05/30 05:49:27;;;;;;;20.88;10.13;;;;;;;11.61;100.00;93797.84;6190715;23;20009;-90
2022/05/30 05:51:56;;;;;;;14.35;9.63;;;;;;;12.11;100.00;93796.53;6215933;23;20390;-90
2022/05/30 05:54:23;;;;;;;15.82;9.60;;;;;;;12.32;100.00;93783.81;6215751;23;20008;-90
2022/05/30 05:56:49;;;;;;;21.70;9.80;;;;;;;11.76;100.00;93788.19;6217337;23;20003;-89
2022/05/30 05:59:15;;;;;;;44.10;11.00;;;;;;;11.34;100.00;93796.72;6191339;23;20000;-90
2022/05/30 06:01:41;;;;;;;22.02;10.25;;;;;;;11.49;100.00;93798.31;6191483;23;20400;-90
2022/05/30 06:04:08;;;;;;;18.98;10.10;;;;;;;11.30;100.00;93799.13;6215593;23;20000;-90
2022/05/30 06:06:34;;;;;;;20.80;10.63;;;;;;;11.26;100.00;93799.97;6190483;23;20410;-89
2022/05/30 06:09:01;;;;;;;17.63;11.38;;;;;;;11.21;100.00;93800.06;6215279;23;20001;-89
2022/05/30 06:11:28;;;;;;;25.70;12.10;;;;;;;10.82;100.00;93802.66;6191943;23;20011;-90
2022/05/30 06:13:54;;;;;;;19.85;11.02;;;;;;;10.91;100.00;93807.28;6190971;23;19996;-89
2022/05/30 06:16:26;;;;;;;19.70;11.65;;;;;;;11.14;100.00;93811.66;6190518;23;20008;-89
2022/05/30 06:18:54;;;;;;;17.45;11.45;;;;;;;11.13;100.00;93810.13;6191243;23;20004;-89
2022/05/30 06:21:21;;;;;;;14.38;10.10;;;;;;;11.58;100.00;93793.19;6216384;23;20005;-90
2022/05/30 06:23:48;;;;;;;17.63;10.63;;;;;;;11.74;100.00;93796.34;6190866;23;20005;-90
2022/05/30 06:26:14;;;;;;;19.63;10.07;;;;;;;11.68;100.00;93794.88;6217006;23;20062;-90
2022/05/30 06:28:40;;;;;;;22.08;9.23;;;;;;;12.22;100.00;93799.75;6215664;23;20054;-90
2022/05/30 06:31:16;;;;;;;20.42;9.43;;;;;;;11.74;100.00;93804.22;6215625;23;20000;-90
2022/05/30 06:33:42;;;;;;;20.27;10.18;;;;;;;11.22;100.00;93809.50;6215680;23;20024;-90
2022/05/30 06:36:12;;;;;;;57.40;11.43;;;;;;;11.76;100.00;93809.16;6191023;23;20008;-91
2022/05/30 06:38:38;;;;;;;51.08;11.38;;;;;;;11.51;100.00;93809.28;6190853;23;20004;-90
2022/05/30 06:41:16;;;;;;;22.95;10.25;;;;;;;11.51;100.00;93811.16;6190787;23;20406;-89
2022/05/30 06:43:44;;;;;;;14.95;8.90;;;;;;;11.67;100.00;93816.94;6191033;23;20003;-91
2022/05/30 06:46:11;;;;;;;15.23;8.52;;;;;;;12.04;100.00;93812.69;6216234;23;20001;-90
2022/05/30 06:48:37;;;;;;;19.27;8.50;;;;;;;12.13;100.00;93816.19;6214832;23;20005;-90
2022/05/30 06:51:04;;;;;;;19.15;9.35;;;;;;;11.79;100.00;93830.38;6190729;23;19997;-90
2022/05/30 06:53:30;;;;;;;15.65;7.88;;;;;;;11.58;100.00;93832.53;6215597;23;20004;-90
2022/05/30 06:55:55;;;;;;;47.35;9.40;;;;;;;11.56;100.00;93837.31;6215316;23;20000;-90
2022/05/30 06:58:21;;;;;;;19.30;8.55;;;;;;;11.94;100.00;93837.22;6217108;23;19996;-90
2022/05/30 07:00:47;;;;;;;13.95;8.15;;;;;;;12.03;100.00;93834.75;6217593;23;20140;-90
2022/05/30 07:03:14;;;;;;;10.93;7.43;;;;;;;12.41;100.00;93831.19;6192651;23;20000;-89
2022/05/30 07:05:41;;;;;;;13.02;8.70;;;;;;;11.71;100.00;93828.44;6217388;23;20001;-90
2022/05/30 07:08:07;;;;;;;13.55;8.32;;;;;;;11.80;100.00;93837.19;6192692;23;20000;-89
2022/05/30 07:10:33;;;;;;;11.10;7.70;;;;;;;12.28;100.00;93830.88;6217765;23;19996;-90
2022/05/30 07:12:58;;;;;;;13.43;7.35;;;;;;;11.90;100.00;93828.34;6217440;23;20070;-90
2022/05/30 07:15:25;;;;;;;9.80;6.80;;;;;;;12.67;100.00;93828.06;6217091;23;20369;-90
2022/05/30 07:17:51;;;;;;;13.25;6.80;;;;;;;12.80;100.00;93826.50;6192639;23;19996;-90
2022/05/30 07:20:26;;;;;;;10.85;5.90;;;;;;;12.91;100.00;93827.84;6192103;23;20008;-90
2022/05/30 07:22:52;;;;;;;12.80;6.63;;;;;;;12.76;100.00;93821.03;6193075;23;20083;-90
2022/05/30 07:25:17;;;;;;;9.38;6.28;;;;;;;13.43;100.00;93824.91;6217491;23;20131;-91
2022/05/30 07:27:43;;;;;;;10.60;6.32;;;;;;;13.45;100.00;93821.22;6192738;23;20011;-90
2022/05/30 07:30:11;;;;;;;9.98;6.30;;;;;;;13.31;100.00;93821.25;6192162;23;20000;-90
2022/05/30 07:32:36;;;;;;;7.80;5.30;;;;;;;13.89;100.00;93826.78;6218885;23;20365;-91
2022/05/30 07:35:03;;;;;;;10.20;5.97;;;;;;;13.62;100.00;93836.34;6217004;23;20076;-91
2022/05/30 07:37:29;;;;;;;10.32;5.88;;;;;;;14.12;100.00;93835.41;6192299;23;20004;-89
2022/05/30 07:39:55;;;;;;;67.38;8.35;;;;;;;13.20;100.00;93836.44;6217417;23;20024;-90
2022/05/30 07:42:20;;;;;;;7.85;5.43;;;;;;;13.34;100.00;93831.97;6217175;23;20031;-89
2022/05/30 07:44:46;;;;;;;14.38;6.07;;;;;;;12.86;100.00;93839.25;6192643;23;20310;-90
2022/05/30 07:47:11;;;;;;;11.38;6.00;;;;;;;12.28;100.00;93835.38;6217328;23;20081;-90
2022/05/30 07:49:37;;;;;;;9.15;6.55;;;;;;;12.27;100.00;93839.84;6192286;23;20001;-90
2022/05/30 07:52:04;;;;;;;15.27;7.07;;;;;;;12.72;100.00;93830.59;6192333;23;20005;-90
2022/05/30 07:54:30;;;;;;;9.82;5.13;;;;;;;13.18;100.00;93834.13;6192203;23;20008;-90
2022/05/30 07:56:56;;;;;;;12.05;6.15;;;;;;;13.52;100.00;93832.13;6217200;23;20011;-90
2022/05/30 07:59:21;;;;;;;13.43;6.55;;;;;;;12.55;100.00;93826.72;6192139;23;20023;-88
2022/05/30 08:01:47;;;;;;;10.95;6.45;;;;;;;12.50;100.00;93833.91;6218606;23;20004;-90
2022/05/30 08:04:15;;;;;;;11.63;6.63;;;;;;;12.86;100.00;93841.13;6217143;23;19997;-90
2022/05/30 08:06:41;;;;;;;11.65;6.93;;;;;;;12.55;100.00;93844.31;6192944;23;20318;-89
2022/05/30 08:09:06;;;;;;;10.80;7.07;;;;;;;12.63;100.00;93840.25;6191670;23;19997;-90
2022/05/30 08:11:32;;;;;;;11.27;7.10;;;;;;;12.68;100.00;93842.78;6192016;23;20008;-90
2022/05/30 08:14:00;;;;;;;15.95;6.13;;;;;;;13.65;100.00;93836.53;6191947;23;20001;-90
2022/05/30 08:16:27;;;;;;;10.10;5.80;;;;;;;13.90;100.00;93833.59;6216582;23;20009;-90
2022/05/30 08:18:52;;;;;;;13.57;6.07;;;;;;;14.84;100.00;93841.44;6191849;23;20000;-90
2022/05/30 08:21:21;;;;;;;8.68;4.90;;;;;;;15.89;100.00;93847.88;6216993;23;20004;-91
2022/05/30 08:23:46;;;;;;;11.57;5.78;;;;;;;15.53;100.00;93852.38;6190787;23;19996;-89
2022/05/30 08:26:15;;;;;;;8.27;5.10;;;;;;;16.19;100.00;93845.34;6192497;23;20339;-90
2022/05/30 08:28:40;;;;;;;7.00;4.65;;;;;;;16.58;100.00;93848.03;6216697;23;20461;-90
2022/05/30 08:31:06;;;;;;;13.27;5.35;;;;;;;15.35;100.00;93851.63;6191865;23;20011;-90
2022/05/30 08:33:31;;;;;;;15.45;5.78;;;;;;;15.94;100.00;93863.59;6191951;23;20079;-90
2022/05/30 08:36:05;;;;;;;10.00;5.05;;;;;;;14.90;100.00;93854.50;6216475;23;20001;-91
2022/05/30 08:38:33;;;;;;;8.10;5.60;;;;;;;14.60;100.00;93854.22;6191829;23;20001;-91
2022/05/30 08:43:49;;;;;;;17.42;5.88;;;;;;;15.41;100.00;93858.31;6216625;23;20012;-90
2022/05/30 08:46:45;;;;;;;14.73;5.53;;;;;;;15.97;100.00;93870.88;6216282;23;20004;-90
2022/05/30 08:49:48;;;;;;;9.02;5.30;;;;;;;16.28;100.00;93857.75;6217958;23;20417;-89
2022/05/30 08:52:44;;;;;;;8.43;5.15;;;;;;;15.97;100.00;93878.81;6216829;23;20000;-90
2022/05/30 08:55:16;;;;;;;8.82;5.35;;;;;;;16.00;100.00;93877.41;6216159;23;20008;-90
2022/05/30 08:57:57;;;;;;;14.07;6.25;;;;;;;15.58;100.00;93885.78;6216650;23;20008;-89
2022/05/30 09:00:29;;;;;;;7.82;5.18;;;;;;;16.18;100.00;93887.94;6216720;23;20291;-90
2022/05/30 09:03:03;;;;;;;12.07;4.80;;;;;;;16.23;100.00;93885.94;6217828;23;20001;-90
2022/05/30 09:05:34;;;;;;;9.40;5.50;;;;;;;16.99;100.00;93893.44;6191500;23;20134;-90
2022/05/30 09:08:04;;;;;;;7.75;5.20;;;;;;;17.94;100.00;93889.69;6191170;23;20043;-89
2022/05/30 09:10:34;;;;;;;7.95;5.13;;;;;;;17.83;100.00;93889.31;6216012;23;20000;-89
2022/05/30 09:13:17;;;;;;;6.45;4.10;;;;;;;18.42;100.00;93889.41;6191809;23;20090;-89
2022/05/30 09:16:08;;;;;;;8.02;4.75;;;;;;;18.40;100.00;93895.06;6216394;23;20004;-89
2022/05/30 09:18:45;;;;;;;7.93;4.82;;;;;;;18.03;100.00;93886.97;6216388;23;19996;-90
2022/05/30 09:21:11;;;;;;;10.88;5.88;;;;;;;17.31;100.00;93887.84;6216593;23;20050;-90
2022/05/30 09:23:37;;;;;;;7.65;4.85;;;;;;;18.04;100.00;93899.91;6190988;23;20004;-90
2022/05/30 09:26:07;;;;;;;11.48;5.18;;;;;;;17.60;100.00;93889.63;6191202;23;20371;-90
2022/05/30 09:28:35;;;;;;;9.93;4.50;;;;;;;17.06;100.00;93893.72;6192590;23;20000;-89
2022/05/30 09:31:10;;;;;;;7.43;5.03;;;;;;;17.81;100.00;93896.81;6191603;23;20007;-90
2022/05/30 09:33:40;;;;;;;15.60;6.32;;;;;;;16.98;100.00;93896.38;6216445;23;19997;-90
2022/05/30 09:36:26;;;;;;;9.57;5.20;;;;;;;17.51;100.00;93897.66;6191080;23;20410;-90
2022/05/30 09:39:01;;;;;;;11.70;4.88;;;;;;;17.01;100.00;93895.78;6190951;23;20028;-90
2022/05/30 09:41:47;;;;;;;8.75;5.20;;;;;;;17.76;100.00;93887.19;6216620;23;20000;-89
2022/05/30 09:44:19;;;;;;;9.18;5.97;;;;;;;17.83;100.00;93885.88;6191393;23;20151;-89
2022/05/30 09:46:57;;;;;;;10.77;5.50;;;;;;;17.45;100.00;93887.56;6216526;23;20004;-90
2022/05/30 09:49:25;;;;;;;7.63;5.13;;;;;;;18.14;100.00;93890.78;6215908;23;20000;-89
2022/05/30 09:52:04;;;;;;;7.65;5.32;;;;;;;18.76;100.00;93892.78;6191805;23;20001;-90
2022/05/30 09:54:33;;;;;;;11.10;5.22;;;;;;;19.58;100.00;93904.38;6216232;23;20091;-89
2022/05/30 09:57:06;;;;;;;7.18;5.30;;;;;;;19.26;100.00;93898.09;6216011;23;20054;-90
2022/05/30 09:59:34;;;;;;;16.50;6.00;;;;;;;16.78;100.00;93888.84;6215939;23;20001;-90
2022/05/30 10:02:01;;;;;;;13.30;5.45;;;;;;;18.36;100.00;93886.97;6190966;23;20000;-90
2022/05/30 10:04:43;;;;;;;10.30;4.95;;;;;;;18.84;100.00;93897.19;6191100;23;20027;-89
2022/05/30 10:07:18;;;;;;;10.27;4.88;;;;;;;18.82;100.00;93896.00;6191582;23;19992;-91
2022/05/30 10:09:54;;;;;;;7.50;4.75;;;;;;;19.31;100.00;93896.00;6215550;23;20005;-90
2022/05/30 10:12:37;;;;;;;7.97;5.25;;;;;;;20.44;100.00;93904.38;6215979;23;20000;-91
2022/05/30 10:15:24;;;;;;;10.68;6.18;;;;;;;18.73;100.00;93894.22;6190767;23;20071;-90
2022/05/30 10:17:51;;;;;;;7.93;5.05;;;;;;;19.03;100.00;93893.28;6217425;23;20036;-90
2022/05/30 10:20:24;;;;;;;5.93;4.55;;;;;;;20.06;100.00;93903.78;6191286;23;20079;-91
2022/05/30 10:29:25;;;;;;;8.77;5.38;;;;;;;19.70;100.00;93902.78;6184100;23;20000;-90
2022/05/30 10:32:17;;;;;;;;;;;;;;;19.13;100.00;93908.72;6191314;23;20003;-90
2022/05/30 10:34:53;;;;;;;8.00;5.35;;;;;;;19.70;100.00;93916.09;6170691;23;19915;-91
2022/05/30 10:37:28;;;;;;;6.97;4.97;;;;;;;19.48;100.00;93910.94;6191285;23;19996;-91
2022/05/30 10:40:02;;;;;;;9.23;5.13;;;;;;;18.57;100.00;93917.19;6216118;23;20011;-90
2022/05/30 10:42:45;;;;;;;9.10;5.47;;;;;;;18.62;100.00;93916.97;6215572;23;20376;-90
2022/05/30 10:45:18;;;;;;;11.68;5.38;;;;;;;19.59;100.00;93913.88;6190963;23;20026;-90
2022/05/30 10:47:48;;;;;;;9.48;5.03;;;;;;;19.59;100.00;93905.91;6190938;23;20026;-90
2022/05/30 10:50:42;;;;;;;9.43;5.50;;;;;;;19.42;100.00;93903.53;6191707;23;20485;-90
2022/05/30 10:53:12;;;;;;;7.65;5.32;;;;;;;20.37;100.00;93905.00;6194181;23;20083;-90
2022/05/30 10:55:40;;;;;;;17.73;5.93;;;;;;;19.69;100.00;93895.94;6190530;23;20008;-90
2022/05/30 10:58:18;;;;;;;11.27;5.15;;;;;;;19.72;100.00;93911.19;6191117;23;20003;-90
2022/05/30 11:00:50;;;;;;;11.90;5.93;;;;;;;18.68;100.00;93906.91;6191026;23;20083;-91
2022/05/30 11:03:35;;;;;;;10.32;5.50;;;;;;;18.61;100.00;93902.94;6216007;23;19997;-91
2022/05/30 11:06:07;;;;;;;9.75;5.22;;;;;;;19.16;100.00;93912.63;6190786;23;20062;-90
2022/05/30 11:08:45;;;;;;;7.37;5.27;;;;;;;20.17;100.00;93915.50;6214480;23;20365;-91
2022/05/30 11:11:16;;;;;;;7.75;5.60;;;;;;;20.47;100.00;93917.78;6215599;23;20054;-90
2022/05/30 11:13:42;;;;;;;11.00;5.95;;;;;;;20.04;100.00;93920.09;6190535;23;20310;-90
2022/05/30 11:16:28;;;;;;;9.30;5.20;;;;;;;19.77;100.00;93921.59;6215256;23;20013;-90
2022/05/30 11:19:05;;;;;;;11.00;4.82;;;;;;;20.71;100.00;93928.63;6216002;23;20394;-90
2022/05/30 11:21:38;;;;;;;8.13;5.15;;;;;;;20.20;100.00;93927.34;6215799;23;20072;-90
2022/05/30 11:24:04;;;;;;;9.80;5.22;;;;;;;20.54;100.00;93919.09;6215289;23;20003;-90
2022/05/30 11:27:00;;;;;;;17.77;6.40;;;;;;;19.32;100.00;93915.38;6190943;23;20000;-91
2022/05/30 11:29:38;;;;;;;9.27;4.85;;;;;;;21.00;100.00;93914.16;6217016;23;20007;-91
2022/05/30 11:32:41;;;;;;;8.45;5.22;;;;;;;21.10;100.00;93907.53;6217040;23;20362;-90
2022/05/30 11:35:26;;;;;;;10.10;4.80;;;;;;;20.60;100.00;93917.72;6100648;23;20061;-90
2022/05/30 11:38:04;;;;;;;13.48;5.90;;;;;;;19.61;100.00;93902.94;6234067;23;20387;-90
2022/05/30 11:40:48;;;;;;;11.93;5.95;;;;;;;20.14;100.00;93907.41;6215667;23;20009;-90
2022/05/30 11:43:32;;;;;;;12.90;6.70;;;;;;;20.17;100.00;93907.53;6216830;23;20007;-90
2022/05/30 11:46:02;;;;;;;15.93;5.95;;;;;;;20.01;100.00;93912.03;6217587;23;20390;-90
2022/05/30 11:48:43;;;;;;;14.38;5.78;;;;;;;19.89;100.00;93902.94;6215935;23;20004;-90